sensor_id;sensor_type;location;lat;lon;timestamp;P1;durP1;ratioP1;P2;durP2;ratioP2
29344;SDS011;16339;48.748;2.222;2023-04-25T00:00:05;11.38;;;6.53;;
29344;SDS011;16339;48.748;2.222;2023-04-25T00:02:35;10.55;;;6.63;;
29344;SDS011;16339;48.748;2.222;2023-04-25T00:05:07;10.45;;;6.80;;
29344;SDS011;16339;48.748;2.222;2023-04-25T00:07:36;9.65;;;6.55;;
29344;SDS011;16339;48.748;2.222;2023-04-25T00:10:07;9.57;;;6.67;;
29344;SDS011;16339;48.748;2.222;2023-04-25T00:12:37;10.27;;;6.57;;
29344;SDS011;16339;48.748;2.222;2023-04-25T00:15:06;13.90;;;6.32;;
29344;SDS011;16339;48.748;2.222;2023-04-25T00:17:36;12.48;;;5.85;;
29344;SDS011;16339;48.748;2.222;2023-04-25T00:20:08;12.23;;;6.20;;
29344;SDS011;16339;48.748;2.222;2023-04-25T00:22:38;11.40;;;6.63;;
29344;SDS011;16339;48.748;2.222;2023-04-25T00:25:07;16.67;;;5.80;;
29344;SDS011;16339;48.748;2.222;2023-04-25T00:27:36;8.85;;;5.32;;
29344;SDS011;16339;48.748;2.222;2023-04-25T00:30:07;10.88;;;5.95;;
29344;SDS011;16339;48.748;2.222;2023-04-25T00:32:36;9.00;;;5.88;;
29344;SDS011;16339;48.748;2.222;2023-04-25T00:35:08;13.70;;;5.43;;
29344;SDS011;16339;48.748;2.222;2023-04-25T00:37:37;8.75;;;5.53;;
29344;SDS011;16339;48.748;2.222;2023-04-25T00:40:06;13.00;;;6.05;;
29344;SDS011;16339;48.748;2.222;2023-04-25T00:42:37;10.35;;;5.90;;
29344;SDS011;16339;48.748;2.222;2023-04-25T00:45:07;9.68;;;6.13;;
29344;SDS011;16339;48.748;2.222;2023-04-25T00:47:40;12.82;;;6.38;;
29344;SDS011;16339;48.748;2.222;2023-04-25T00:50:13;12.82;;;6.03;;
29344;SDS011;16339;48.748;2.222;2023-04-25T00:52:43;22.50;;;7.03;;
29344;SDS011;16339;48.748;2.222;2023-04-25T00:55:12;19.65;;;6.10;;
29344;SDS011;16339;48.748;2.222;2023-04-25T00:57:41;16.92;;;6.28;;
29344;SDS011;16339;48.748;2.222;2023-04-25T01:00:10;9.20;;;5.88;;
29344;SDS011;16339;48.748;2.222;2023-04-25T01:02:39;12.98;;;6.85;;
29344;SDS011;16339;48.748;2.222;2023-04-25T01:05:09;21.48;;;5.90;;
29344;SDS011;16339;48.748;2.222;2023-04-25T01:07:41;10.38;;;5.82;;
29344;SDS011;16339;48.748;2.222;2023-04-25T01:10:10;9.02;;;5.90;;
29344;SDS011;16339;48.748;2.222;2023-04-25T01:12:38;12.63;;;6.53;;
29344;SDS011;16339;48.748;2.222;2023-04-25T01:15:08;14.10;;;7.10;;
29344;SDS011;16339;48.748;2.222;2023-04-25T01:17:37;20.42;;;7.65;;
29344;SDS011;16339;48.748;2.222;2023-04-25T01:20:07;30.95;;;8.20;;
29344;SDS011;16339;48.748;2.222;2023-04-25T01:22:39;12.93;;;7.93;;
29344;SDS011;16339;48.748;2.222;2023-04-25T01:25:08;13.23;;;7.43;;
29344;SDS011;16339;48.748;2.222;2023-04-25T01:27:37;32.58;;;7.65;;
29344;SDS011;16339;48.748;2.222;2023-04-25T01:30:07;17.13;;;8.07;;
29344;SDS011;16339;48.748;2.222;2023-04-25T01:32:36;12.90;;;7.30;;
29344;SDS011;16339;48.748;2.222;2023-04-25T01:35:06;10.48;;;6.70;;
29344;SDS011;16339;48.748;2.222;2023-04-25T01:37:37;12.55;;;6.70;;
29344;SDS011;16339;48.748;2.222;2023-04-25T01:40:09;13.88;;;7.15;;
29344;SDS011;16339;48.748;2.222;2023-04-25T01:42:41;15.52;;;6.95;;
29344;SDS011;16339;48.748;2.222;2023-04-25T01:45:11;13.63;;;6.45;;
29344;SDS011;16339;48.748;2.222;2023-04-25T01:47:40;12.80;;;6.45;;
29344;SDS011;16339;48.748;2.222;2023-04-25T01:50:12;12.75;;;6.05;;
29344;SDS011;16339;48.748;2.222;2023-04-25T01:52:43;10.68;;;6.88;;
29344;SDS011;16339;48.748;2.222;2023-04-25T01:55:12;9.70;;;6.28;;
29344;SDS011;16339;48.748;2.222;2023-04-25T01:57:41;10.77;;;6.70;;
29344;SDS011;16339;48.748;2.222;2023-04-25T02:00:10;11.27;;;6.03;;
29344;SDS011;16339;48.748;2.222;2023-04-25T02:02:39;8.88;;;6.47;;
29344;SDS011;16339;48.748;2.222;2023-04-25T02:05:08;9.98;;;5.97;;
29344;SDS011;16339;48.748;2.222;2023-04-25T02:07:37;10.00;;;6.07;;
29344;SDS011;16339;48.748;2.222;2023-04-25T02:10:09;11.38;;;6.00;;
29344;SDS011;16339;48.748;2.222;2023-04-25T02:12:38;21.85;;;10.73;;
29344;SDS011;16339;48.748;2.222;2023-04-25T02:15:06;19.88;;;9.68;;
29344;SDS011;16339;48.748;2.222;2023-04-25T02:17:36;11.35;;;6.55;;
29344;SDS011;16339;48.748;2.222;2023-04-25T02:20:05;10.75;;;6.38;;
29344;SDS011;16339;48.748;2.222;2023-04-25T02:22:35;10.03;;;5.73;;
29344;SDS011;16339;48.748;2.222;2023-04-25T02:25:04;16.17;;;6.72;;
29344;SDS011;16339;48.748;2.222;2023-04-25T02:27:36;13.48;;;6.50;;
29344;SDS011;16339;48.748;2.222;2023-04-25T02:32:34;12.88;;;5.72;;
29344;SDS011;16339;48.748;2.222;2023-04-25T02:35:03;16.15;;;6.30;;
29344;SDS011;16339;48.748;2.222;2023-04-25T02:37:33;11.52;;;5.75;;
29344;SDS011;16339;48.748;2.222;2023-04-25T02:40:03;18.75;;;6.50;;
29344;SDS011;16339;48.748;2.222;2023-04-25T02:42:33;14.10;;;6.05;;
29344;SDS011;16339;48.748;2.222;2023-04-25T02:45:04;18.08;;;6.95;;
29344;SDS011;16339;48.748;2.222;2023-04-25T02:47:34;18.02;;;6.55;;
29344;SDS011;16339;48.748;2.222;2023-04-25T02:50:03;24.17;;;7.18;;
29344;SDS011;16339;48.748;2.222;2023-04-25T02:52:32;13.15;;;6.10;;
29344;SDS011;16339;48.748;2.222;2023-04-25T02:55:01;13.05;;;6.55;;
29344;SDS011;16339;48.748;2.222;2023-04-25T02:57:30;14.43;;;6.13;;
29344;SDS011;16339;48.748;2.222;2023-04-25T02:59:59;15.13;;;6.32;;
29344;SDS011;16339;48.748;2.222;2023-04-25T03:02:31;13.55;;;6.45;;
29344;SDS011;16339;48.748;2.222;2023-04-25T03:05:00;13.80;;;6.43;;
29344;SDS011;16339;48.748;2.222;2023-04-25T03:07:29;14.75;;;6.78;;
29344;SDS011;16339;48.748;2.222;2023-04-25T03:09:57;14.88;;;7.10;;
29344;SDS011;16339;48.748;2.222;2023-04-25T03:12:26;16.95;;;6.50;;
29344;SDS011;16339;48.748;2.222;2023-04-25T03:14:55;17.60;;;7.20;;
29344;SDS011;16339;48.748;2.222;2023-04-25T03:17:23;14.32;;;6.47;;
29344;SDS011;16339;48.748;2.222;2023-04-25T03:19:57;11.25;;;6.53;;
29344;SDS011;16339;48.748;2.222;2023-04-25T03:22:25;19.92;;;7.05;;
29344;SDS011;16339;48.748;2.222;2023-04-25T03:24:54;20.50;;;7.50;;
29344;SDS011;16339;48.748;2.222;2023-04-25T03:27:23;24.85;;;6.78;;
29344;SDS011;16339;48.748;2.222;2023-04-25T03:29:51;14.57;;;6.20;;
29344;SDS011;16339;48.748;2.222;2023-04-25T03:32:20;22.95;;;6.80;;
29344;SDS011;16339;48.748;2.222;2023-04-25T03:34:49;21.42;;;7.10;;
29344;SDS011;16339;48.748;2.222;2023-04-25T03:37:20;16.85;;;6.28;;
29344;SDS011;16339;48.748;2.222;2023-04-25T03:39:49;19.20;;;6.82;;
29344;SDS011;16339;48.748;2.222;2023-04-25T03:42:17;18.48;;;6.45;;
29344;SDS011;16339;48.748;2.222;2023-04-25T03:44:47;16.05;;;6.60;;
29344;SDS011;16339;48.748;2.222;2023-04-25T03:47:16;22.50;;;6.78;;
29344;SDS011;16339;48.748;2.222;2023-04-25T03:49:45;16.48;;;6.68;;
29344;SDS011;16339;48.748;2.222;2023-04-25T03:52:16;13.77;;;6.03;;
29344;SDS011;16339;48.748;2.222;2023-04-25T03:54:48;20.48;;;6.80;;
29344;SDS011;16339;48.748;2.222;2023-04-25T03:57:16;19.02;;;6.20;;
29344;SDS011;16339;48.748;2.222;2023-04-25T03:59:45;25.98;;;6.63;;
29344;SDS011;16339;48.748;2.222;2023-04-25T04:02:14;16.38;;;6.57;;
29344;SDS011;16339;48.748;2.222;2023-04-25T04:04:42;19.38;;;6.82;;
29344;SDS011;16339;48.748;2.222;2023-04-25T04:07:11;19.85;;;6.55;;
29344;SDS011;16339;48.748;2.222;2023-04-25T04:09:43;16.67;;;6.57;;
29344;SDS011;16339;48.748;2.222;2023-04-25T04:12:11;17.60;;;6.47;;
29344;SDS011;16339;48.748;2.222;2023-04-25T04:14:40;14.52;;;6.22;;
29344;SDS011;16339;48.748;2.222;2023-04-25T04:17:09;18.55;;;7.13;;
29344;SDS011;16339;48.748;2.222;2023-04-25T04:19:37;13.93;;;7.10;;
29344;SDS011;16339;48.748;2.222;2023-04-25T04:22:06;19.10;;;6.55;;
29344;SDS011;16339;48.748;2.222;2023-04-25T04:24:35;17.55;;;6.72;;
29344;SDS011;16339;48.748;2.222;2023-04-25T04:27:06;15.05;;;6.72;;
29344;SDS011;16339;48.748;2.222;2023-04-25T04:29:35;21.40;;;6.47;;
29344;SDS011;16339;48.748;2.222;2023-04-25T04:32:04;13.98;;;6.57;;
29344;SDS011;16339;48.748;2.222;2023-04-25T04:34:33;15.55;;;6.43;;
29344;SDS011;16339;48.748;2.222;2023-04-25T04:37:02;23.73;;;7.05;;
29344;SDS011;16339;48.748;2.222;2023-04-25T04:39:32;19.30;;;7.53;;
29344;SDS011;16339;48.748;2.222;2023-04-25T04:42:00;18.45;;;8.00;;
29344;SDS011;16339;48.748;2.222;2023-04-25T04:44:32;19.15;;;8.20;;
29344;SDS011;16339;48.748;2.222;2023-04-25T04:47:01;24.13;;;8.95;;
29344;SDS011;16339;48.748;2.222;2023-04-25T04:49:31;15.50;;;8.20;;
29344;SDS011;16339;48.748;2.222;2023-04-25T04:51:59;27.38;;;8.50;;
29344;SDS011;16339;48.748;2.222;2023-04-25T04:54:28;28.95;;;9.40;;
29344;SDS011;16339;48.748;2.222;2023-04-25T04:56:57;25.58;;;9.10;;
29344;SDS011;16339;48.748;2.222;2023-04-25T04:59:25;24.23;;;9.48;;
29344;SDS011;16339;48.748;2.222;2023-04-25T05:01:57;32.08;;;9.52;;
29344;SDS011;16339;48.748;2.222;2023-04-25T05:04:25;23.08;;;8.95;;
29344;SDS011;16339;48.748;2.222;2023-04-25T05:06:54;26.08;;;9.65;;
29344;SDS011;16339;48.748;2.222;2023-04-25T05:09:23;20.08;;;9.95;;
29344;SDS011;16339;48.748;2.222;2023-04-25T05:11:52;34.35;;;10.27;;
29344;SDS011;16339;48.748;2.222;2023-04-25T05:14:20;34.65;;;10.05;;
29344;SDS011;16339;48.748;2.222;2023-04-25T05:16:49;35.05;;;10.25;;
29344;SDS011;16339;48.748;2.222;2023-04-25T05:19:21;19.23;;;9.35;;
29344;SDS011;16339;48.748;2.222;2023-04-25T05:24:18;20.70;;;9.82;;
29344;SDS011;16339;48.748;2.222;2023-04-25T05:26:47;21.45;;;10.63;;
29344;SDS011;16339;48.748;2.222;2023-04-25T05:29:15;31.77;;;10.35;;
29344;SDS011;16339;48.748;2.222;2023-04-25T05:31:44;22.83;;;9.82;;
29344;SDS011;16339;48.748;2.222;2023-04-25T05:34:13;25.70;;;10.93;;
29344;SDS011;16339;48.748;2.222;2023-04-25T05:36:44;24.67;;;12.27;;
29344;SDS011;16339;48.748;2.222;2023-04-25T05:39:13;37.05;;;12.73;;
29344;SDS011;16339;48.748;2.222;2023-04-25T05:41:42;26.42;;;11.63;;
29344;SDS011;16339;48.748;2.222;2023-04-25T05:44:11;29.90;;;11.68;;
29344;SDS011;16339;48.748;2.222;2023-04-25T05:46:41;24.33;;;11.27;;
29344;SDS011;16339;48.748;2.222;2023-04-25T05:49:09;29.73;;;11.25;;
29344;SDS011;16339;48.748;2.222;2023-04-25T05:51:38;27.02;;;11.43;;
29344;SDS011;16339;48.748;2.222;2023-04-25T05:54:09;24.30;;;10.98;;
29344;SDS011;16339;48.748;2.222;2023-04-25T05:56:38;27.55;;;11.85;;
29344;SDS011;16339;48.748;2.222;2023-04-25T05:59:07;28.00;;;10.88;;
29344;SDS011;16339;48.748;2.222;2023-04-25T06:01:35;24.38;;;11.27;;
29344;SDS011;16339;48.748;2.222;2023-04-25T06:04:05;26.77;;;12.10;;
29344;SDS011;16339;48.748;2.222;2023-04-25T06:06:34;34.00;;;12.15;;
29344;SDS011;16339;48.748;2.222;2023-04-25T06:09:02;27.08;;;12.23;;
29344;SDS011;16339;48.748;2.222;2023-04-25T06:11:34;32.28;;;12.57;;
29344;SDS011;16339;48.748;2.222;2023-04-25T06:14:02;32.10;;;13.07;;
29344;SDS011;16339;48.748;2.222;2023-04-25T06:16:31;34.15;;;12.50;;
29344;SDS011;16339;48.748;2.222;2023-04-25T06:19:00;31.98;;;12.77;;
29344;SDS011;16339;48.748;2.222;2023-04-25T06:21:29;28.30;;;12.27;;
29344;SDS011;16339;48.748;2.222;2023-04-25T06:23:58;31.70;;;12.07;;
29344;SDS011;16339;48.748;2.222;2023-04-25T06:26:26;32.05;;;12.93;;
29344;SDS011;16339;48.748;2.222;2023-04-25T06:28:58;25.52;;;12.32;;
29344;SDS011;16339;48.748;2.222;2023-04-25T06:31:26;40.03;;;12.50;;
29344;SDS011;16339;48.748;2.222;2023-04-25T06:33:57;26.52;;;13.13;;
29344;SDS011;16339;48.748;2.222;2023-04-25T06:36:26;26.08;;;12.63;;
29344;SDS011;16339;48.748;2.222;2023-04-25T06:38:55;25.63;;;12.23;;
29344;SDS011;16339;48.748;2.222;2023-04-25T06:41:24;34.92;;;13.50;;
29344;SDS011;16339;48.748;2.222;2023-04-25T06:43:52;32.13;;;12.85;;
29344;SDS011;16339;48.748;2.222;2023-04-25T06:46:24;29.38;;;12.55;;
29344;SDS011;16339;48.748;2.222;2023-04-25T06:48:52;32.58;;;12.60;;
29344;SDS011;16339;48.748;2.222;2023-04-25T06:51:21;30.27;;;13.27;;
29344;SDS011;16339;48.748;2.222;2023-04-25T06:53:53;27.55;;;12.63;;
29344;SDS011;16339;48.748;2.222;2023-04-25T06:56:22;24.98;;;11.77;;
29344;SDS011;16339;48.748;2.222;2023-04-25T06:58:51;39.15;;;12.43;;
29344;SDS011;16339;48.748;2.222;2023-04-25T07:01:19;20.48;;;11.75;;
29344;SDS011;16339;48.748;2.222;2023-04-25T07:03:51;23.27;;;10.95;;
29344;SDS011;16339;48.748;2.222;2023-04-25T07:06:19;20.38;;;10.30;;
29344;SDS011;16339;48.748;2.222;2023-04-25T07:08:48;22.48;;;10.15;;
29344;SDS011;16339;48.748;2.222;2023-04-25T07:11:17;24.65;;;9.02;;
29344;SDS011;16339;48.748;2.222;2023-04-25T07:13:45;27.33;;;9.88;;
29344;SDS011;16339;48.748;2.222;2023-04-25T07:16:14;20.13;;;9.30;;
29344;SDS011;16339;48.748;2.222;2023-04-25T07:18:43;18.98;;;8.38;;
29344;SDS011;16339;48.748;2.222;2023-04-25T07:21:15;16.38;;;7.38;;
29344;SDS011;16339;48.748;2.222;2023-04-25T07:23:43;17.30;;;7.43;;
29344;SDS011;16339;48.748;2.222;2023-04-25T07:26:12;19.02;;;8.35;;
29344;SDS011;16339;48.748;2.222;2023-04-25T07:28:41;14.07;;;7.43;;
29344;SDS011;16339;48.748;2.222;2023-04-25T07:31:09;20.23;;;7.60;;
29344;SDS011;16339;48.748;2.222;2023-04-25T07:33:38;14.52;;;7.68;;
29344;SDS011;16339;48.748;2.222;2023-04-25T07:36:07;16.15;;;9.65;;
29344;SDS011;16339;48.748;2.222;2023-04-25T07:38:39;18.30;;;9.57;;
29344;SDS011;16339;48.748;2.222;2023-04-25T07:43:36;20.45;;;10.18;;
29344;SDS011;16339;48.748;2.222;2023-04-25T07:46:05;21.20;;;10.77;;
29344;SDS011;16339;48.748;2.222;2023-04-25T07:48:33;24.30;;;11.48;;
29344;SDS011;16339;48.748;2.222;2023-04-25T07:51:02;22.48;;;11.43;;
29344;SDS011;16339;48.748;2.222;2023-04-25T07:53:32;24.95;;;12.73;;
29344;SDS011;16339;48.748;2.222;2023-04-25T07:56:05;25.23;;;12.90;;
29344;SDS011;16339;48.748;2.222;2023-04-25T07:58:34;25.27;;;14.10;;
29344;SDS011;16339;48.748;2.222;2023-04-25T08:01:03;27.75;;;14.85;;
29344;SDS011;16339;48.748;2.222;2023-04-25T08:03:32;28.48;;;14.05;;
29344;SDS011;16339;48.748;2.222;2023-04-25T08:06:00;33.72;;;15.68;;
29344;SDS011;16339;48.748;2.222;2023-04-25T08:08:29;33.50;;;16.38;;
29344;SDS011;16339;48.748;2.222;2023-04-25T08:10:58;39.85;;;16.52;;
29344;SDS011;16339;48.748;2.222;2023-04-25T08:13:29;33.50;;;17.30;;
29344;SDS011;16339;48.748;2.222;2023-04-25T08:15:58;43.85;;;18.45;;
29344;SDS011;16339;48.748;2.222;2023-04-25T08:18:26;43.28;;;18.10;;
29344;SDS011;16339;48.748;2.222;2023-04-25T08:20:56;43.58;;;17.55;;
29344;SDS011;16339;48.748;2.222;2023-04-25T08:23:24;37.63;;;17.67;;
29344;SDS011;16339;48.748;2.222;2023-04-25T08:25:53;41.40;;;17.17;;
29344;SDS011;16339;48.748;2.222;2023-04-25T08:28:22;34.95;;;15.90;;
29344;SDS011;16339;48.748;2.222;2023-04-25T08:30:53;38.55;;;15.52;;
29344;SDS011;16339;48.748;2.222;2023-04-25T08:33:22;33.28;;;14.90;;
29344;SDS011;16339;48.748;2.222;2023-04-25T08:35:50;37.05;;;15.35;;
29344;SDS011;16339;48.748;2.222;2023-04-25T08:38:19;46.92;;;15.30;;
29344;SDS011;16339;48.748;2.222;2023-04-25T08:40:48;36.05;;;14.40;;
29344;SDS011;16339;48.748;2.222;2023-04-25T08:43:19;39.85;;;14.95;;
29344;SDS011;16339;48.748;2.222;2023-04-25T08:45:48;34.58;;;15.15;;
29344;SDS011;16339;48.748;2.222;2023-04-25T08:48:19;33.58;;;13.93;;
29344;SDS011;16339;48.748;2.222;2023-04-25T08:50:49;32.95;;;14.60;;
29344;SDS011;16339;48.748;2.222;2023-04-25T08:53:21;36.17;;;14.57;;
29344;SDS011;16339;48.748;2.222;2023-04-25T08:55:53;30.15;;;13.73;;
29344;SDS011;16339;48.748;2.222;2023-04-25T08:58:23;31.95;;;14.23;;
29344;SDS011;16339;48.748;2.222;2023-04-25T09:00:52;42.85;;;14.70;;
29344;SDS011;16339;48.748;2.222;2023-04-25T09:03:23;35.72;;;13.77;;
29344;SDS011;16339;48.748;2.222;2023-04-25T09:05:52;33.97;;;13.30;;
29344;SDS011;16339;48.748;2.222;2023-04-25T09:08:23;28.17;;;12.82;;
29344;SDS011;16339;48.748;2.222;2023-04-25T09:10:51;25.90;;;11.65;;
29344;SDS011;16339;48.748;2.222;2023-04-25T09:13:24;26.70;;;11.52;;
29344;SDS011;16339;48.748;2.222;2023-04-25T09:15:54;27.73;;;11.93;;
29344;SDS011;16339;48.748;2.222;2023-04-25T09:18:27;37.20;;;17.13;;
29344;SDS011;16339;48.748;2.222;2023-04-25T09:20:58;31.63;;;13.57;;
29344;SDS011;16339;48.748;2.222;2023-04-25T09:23:41;31.90;;;12.32;;
29344;SDS011;16339;48.748;2.222;2023-04-25T09:26:13;26.15;;;11.23;;
29344;SDS011;16339;48.748;2.222;2023-04-25T09:28:43;26.92;;;11.25;;
29344;SDS011;16339;48.748;2.222;2023-04-25T09:31:20;22.35;;;10.55;;
29344;SDS011;16339;48.748;2.222;2023-04-25T09:33:52;23.13;;;10.43;;
29344;SDS011;16339;48.748;2.222;2023-04-25T09:36:27;30.77;;;10.68;;
29344;SDS011;16339;48.748;2.222;2023-04-25T09:38:57;28.83;;;11.10;;
29344;SDS011;16339;48.748;2.222;2023-04-25T09:41:28;21.45;;;10.25;;
29344;SDS011;16339;48.748;2.222;2023-04-25T09:43:57;29.55;;;10.43;;
29344;SDS011;16339;48.748;2.222;2023-04-25T09:46:32;31.50;;;11.95;;
29344;SDS011;16339;48.748;2.222;2023-04-25T09:49:05;29.02;;;10.90;;
29344;SDS011;16339;48.748;2.222;2023-04-25T09:51:34;26.02;;;11.90;;
29344;SDS011;16339;48.748;2.222;2023-04-25T09:54:03;26.58;;;10.85;;
29344;SDS011;16339;48.748;2.222;2023-04-25T09:56:32;26.05;;;11.52;;
29344;SDS011;16339;48.748;2.222;2023-04-25T09:59:04;25.38;;;10.88;;
29344;SDS011;16339;48.748;2.222;2023-04-25T10:01:34;31.60;;;11.63;;
29344;SDS011;16339;48.748;2.222;2023-04-25T10:04:10;26.27;;;10.40;;
29344;SDS011;16339;48.748;2.222;2023-04-25T10:06:39;24.80;;;10.52;;
29344;SDS011;16339;48.748;2.222;2023-04-25T10:11:40;30.20;;;10.00;;
29344;SDS011;16339;48.748;2.222;2023-04-25T10:14:10;25.75;;;10.30;;
29344;SDS011;16339;48.748;2.222;2023-04-25T10:16:41;28.88;;;9.85;;
29344;SDS011;16339;48.748;2.222;2023-04-25T10:19:13;24.02;;;9.52;;
29344;SDS011;16339;48.748;2.222;2023-04-25T10:21:44;24.55;;;9.40;;
29344;SDS011;16339;48.748;2.222;2023-04-25T10:24:17;25.20;;;9.77;;
29344;SDS011;16339;48.748;2.222;2023-04-25T10:26:48;21.92;;;9.75;;
29344;SDS011;16339;48.748;2.222;2023-04-25T10:29:24;26.55;;;9.18;;
29344;SDS011;16339;48.748;2.222;2023-04-25T10:31:53;25.55;;;9.55;;
29344;SDS011;16339;48.748;2.222;2023-04-25T10:34:37;21.77;;;7.95;;
29344;SDS011;16339;48.748;2.222;2023-04-25T10:37:10;19.70;;;7.78;;
29344;SDS011;16339;48.748;2.222;2023-04-25T10:39:39;25.90;;;9.30;;
29344;SDS011;16339;48.748;2.222;2023-04-25T10:42:09;18.90;;;8.13;;
29344;SDS011;16339;48.748;2.222;2023-04-25T10:44:37;28.10;;;8.93;;
29344;SDS011;16339;48.748;2.222;2023-04-25T10:47:07;23.88;;;9.30;;
29344;SDS011;16339;48.748;2.222;2023-04-25T10:49:41;24.98;;;9.90;;
29344;SDS011;16339;48.748;2.222;2023-04-25T10:52:11;31.50;;;10.77;;
29344;SDS011;16339;48.748;2.222;2023-04-25T10:54:47;22.58;;;8.90;;
29344;SDS011;16339;48.748;2.222;2023-04-25T10:57:26;22.67;;;7.90;;
29344;SDS011;16339;48.748;2.222;2023-04-25T11:00:00;18.20;;;7.45;;
29344;SDS011;16339;48.748;2.222;2023-04-25T11:02:36;23.95;;;7.50;;
29344;SDS011;16339;48.748;2.222;2023-04-25T11:05:09;20.20;;;7.57;;
29344;SDS011;16339;48.748;2.222;2023-04-25T11:07:38;18.73;;;7.07;;
29344;SDS011;16339;48.748;2.222;2023-04-25T11:10:12;16.92;;;7.03;;
29344;SDS011;16339;48.748;2.222;2023-04-25T11:12:42;21.75;;;7.65;;
29344;SDS011;16339;48.748;2.222;2023-04-25T11:15:11;23.25;;;7.80;;
29344;SDS011;16339;48.748;2.222;2023-04-25T11:17:39;24.73;;;7.82;;
29344;SDS011;16339;48.748;2.222;2023-04-25T11:20:14;24.13;;;7.97;;
29344;SDS011;16339;48.748;2.222;2023-04-25T11:22:44;18.48;;;7.63;;
29344;SDS011;16339;48.748;2.222;2023-04-25T11:25:14;21.73;;;7.18;;
29344;SDS011;16339;48.748;2.222;2023-04-25T11:27:50;21.50;;;7.07;;
29344;SDS011;16339;48.748;2.222;2023-04-25T11:30:19;19.27;;;6.75;;
29344;SDS011;16339;48.748;2.222;2023-04-25T11:32:49;14.48;;;6.05;;
29344;SDS011;16339;48.748;2.222;2023-04-25T11:35:21;16.85;;;5.88;;
29344;SDS011;16339;48.748;2.222;2023-04-25T11:37:50;23.58;;;6.13;;
29344;SDS011;16339;48.748;2.222;2023-04-25T11:40:19;19.33;;;7.57;;
29344;SDS011;16339;48.748;2.222;2023-04-25T11:42:48;16.27;;;5.63;;
29344;SDS011;16339;48.748;2.222;2023-04-25T11:45:17;12.27;;;5.78;;
29344;SDS011;16339;48.748;2.222;2023-04-25T11:47:46;18.50;;;5.00;;
29344;SDS011;16339;48.748;2.222;2023-04-25T11:50:15;14.25;;;4.35;;
29344;SDS011;16339;48.748;2.222;2023-04-25T11:52:46;15.82;;;4.57;;
29344;SDS011;16339;48.748;2.222;2023-04-25T11:55:20;13.07;;;4.60;;
29344;SDS011;16339;48.748;2.222;2023-04-25T11:57:49;18.47;;;5.17;;
29344;SDS011;16339;48.748;2.222;2023-04-25T12:00:18;16.40;;;5.10;;
29344;SDS011;16339;48.748;2.222;2023-04-25T12:02:50;16.02;;;5.55;;
29344;SDS011;16339;48.748;2.222;2023-04-25T12:07:54;16.40;;;4.93;;
29344;SDS011;16339;48.748;2.222;2023-04-25T12:10:23;13.35;;;5.22;;
29344;SDS011;16339;48.748;2.222;2023-04-25T12:12:53;12.35;;;4.95;;
29344;SDS011;16339;48.748;2.222;2023-04-25T12:15:23;16.15;;;4.72;;
29344;SDS011;16339;48.748;2.222;2023-04-25T12:17:53;17.48;;;4.93;;
29344;SDS011;16339;48.748;2.222;2023-04-25T12:20:23;14.65;;;4.85;;
29344;SDS011;16339;48.748;2.222;2023-04-25T12:22:56;14.18;;;4.50;;
29344;SDS011;16339;48.748;2.222;2023-04-25T12:25:35;11.70;;;4.30;;
29344;SDS011;16339;48.748;2.222;2023-04-25T12:28:11;14.05;;;4.90;;
29344;SDS011;16339;48.748;2.222;2023-04-25T12:30:55;14.23;;;4.88;;
29344;SDS011;16339;48.748;2.222;2023-04-25T12:33:26;12.90;;;4.80;;
29344;SDS011;16339;48.748;2.222;2023-04-25T12:35:55;16.85;;;4.95;;
29344;SDS011;16339;48.748;2.222;2023-04-25T12:38:30;16.77;;;5.75;;
29344;SDS011;16339;48.748;2.222;2023-04-25T12:41:06;16.97;;;5.20;;
29344;SDS011;16339;48.748;2.222;2023-04-25T12:43:35;19.80;;;5.00;;
29344;SDS011;16339;48.748;2.222;2023-04-25T12:46:03;12.27;;;4.60;;
29344;SDS011;16339;48.748;2.222;2023-04-25T12:48:32;18.25;;;5.05;;
29344;SDS011;16339;48.748;2.222;2023-04-25T12:51:03;13.07;;;5.18;;
29344;SDS011;16339;48.748;2.222;2023-04-25T12:53:35;12.43;;;4.85;;
29344;SDS011;16339;48.748;2.222;2023-04-25T12:56:06;13.82;;;5.18;;
29344;SDS011;16339;48.748;2.222;2023-04-25T12:58:35;19.80;;;4.90;;
29344;SDS011;16339;48.748;2.222;2023-04-25T13:01:05;18.45;;;4.75;;
29344;SDS011;16339;48.748;2.222;2023-04-25T13:03:34;15.23;;;4.78;;
29344;SDS011;16339;48.748;2.222;2023-04-25T13:06:03;13.68;;;4.85;;
29344;SDS011;16339;48.748;2.222;2023-04-25T13:08:37;16.60;;;5.03;;
29344;SDS011;16339;48.748;2.222;2023-04-25T13:11:08;14.38;;;4.78;;
29344;SDS011;16339;48.748;2.222;2023-04-25T13:13:50;20.00;;;5.18;;
29344;SDS011;16339;48.748;2.222;2023-04-25T13:16:18;13.68;;;4.68;;
29344;SDS011;16339;48.748;2.222;2023-04-25T13:18:48;17.42;;;5.25;;
29344;SDS011;16339;48.748;2.222;2023-04-25T13:21:19;20.30;;;4.80;;
29344;SDS011;16339;48.748;2.222;2023-04-25T13:23:50;13.35;;;4.53;;
29344;SDS011;16339;48.748;2.222;2023-04-25T13:26:19;13.40;;;4.65;;
29344;SDS011;16339;48.748;2.222;2023-04-25T13:28:48;15.60;;;5.00;;
29344;SDS011;16339;48.748;2.222;2023-04-25T13:31:17;17.48;;;4.38;;
29344;SDS011;16339;48.748;2.222;2023-04-25T13:33:46;14.63;;;4.53;;
29344;SDS011;16339;48.748;2.222;2023-04-25T13:36:16;15.40;;;4.77;;
29344;SDS011;16339;48.748;2.222;2023-04-25T13:39:05;13.05;;;4.53;;
29344;SDS011;16339;48.748;2.222;2023-04-25T13:41:41;13.35;;;5.03;;
29344;SDS011;16339;48.748;2.222;2023-04-25T13:44:16;15.40;;;4.75;;
29344;SDS011;16339;48.748;2.222;2023-04-25T13:46:45;19.30;;;4.53;;
29344;SDS011;16339;48.748;2.222;2023-04-25T13:49:14;15.85;;;4.22;;
29344;SDS011;16339;48.748;2.222;2023-04-25T13:51:42;11.85;;;4.28;;
29344;SDS011;16339;48.748;2.222;2023-04-25T13:54:14;18.08;;;5.15;;
29344;SDS011;16339;48.748;2.222;2023-04-25T13:56:44;12.00;;;4.13;;
29344;SDS011;16339;48.748;2.222;2023-04-25T13:59:13;16.85;;;4.90;;
29344;SDS011;16339;48.748;2.222;2023-04-25T14:01:42;14.95;;;4.07;;
29344;SDS011;16339;48.748;2.222;2023-04-25T14:04:11;10.88;;;4.20;;
29344;SDS011;16339;48.748;2.222;2023-04-25T14:06:40;14.60;;;4.10;;
29344;SDS011;16339;48.748;2.222;2023-04-25T14:09:08;15.35;;;4.10;;
29344;SDS011;16339;48.748;2.222;2023-04-25T14:11:40;12.35;;;3.85;;
29344;SDS011;16339;48.748;2.222;2023-04-25T14:14:09;17.27;;;4.28;;
29344;SDS011;16339;48.748;2.222;2023-04-25T14:16:40;11.13;;;4.03;;
29344;SDS011;16339;48.748;2.222;2023-04-25T14:19:09;15.98;;;4.72;;
29344;SDS011;16339;48.748;2.222;2023-04-25T14:21:38;17.98;;;5.00;;
29344;SDS011;16339;48.748;2.222;2023-04-25T14:24:06;19.83;;;5.28;;
29344;SDS011;16339;48.748;2.222;2023-04-25T14:26:36;16.88;;;4.90;;
29344;SDS011;16339;48.748;2.222;2023-04-25T14:29:10;14.23;;;4.88;;
29344;SDS011;16339;48.748;2.222;2023-04-25T14:31:39;22.25;;;5.25;;
29344;SDS011;16339;48.748;2.222;2023-04-25T14:34:08;20.77;;;5.47;;
29344;SDS011;16339;48.748;2.222;2023-04-25T14:36:37;17.52;;;5.22;;
29344;SDS011;16339;48.748;2.222;2023-04-25T14:39:07;16.38;;;5.07;;
29344;SDS011;16339;48.748;2.222;2023-04-25T14:41:37;13.13;;;5.22;;
29344;SDS011;16339;48.748;2.222;2023-04-25T14:44:06;22.85;;;4.85;;
29344;SDS011;16339;48.748;2.222;2023-04-25T14:46:37;15.43;;;5.53;;
29344;SDS011;16339;48.748;2.222;2023-04-25T14:49:06;21.02;;;4.72;;
29344;SDS011;16339;48.748;2.222;2023-04-25T14:51:35;15.98;;;4.50;;
29344;SDS011;16339;48.748;2.222;2023-04-25T14:54:03;17.25;;;4.35;;
29344;SDS011;16339;48.748;2.222;2023-04-25T14:56:32;11.73;;;4.22;;
29344;SDS011;16339;48.748;2.222;2023-04-25T14:59:01;11.02;;;4.53;;